createdAt,value
2019-03-04T00:01:28.111Z,12.00
2019-03-04T00:04:10.320Z,12.00
2019-03-04T00:06:52.469Z,12.00
2019-03-04T00:09:34.027Z,12.10
2019-03-04T00:12:15.940Z,12.00
2019-03-04T00:15:00.562Z,12.10
2019-03-04T00:17:42.845Z,12.10
2019-03-04T00:20:25.509Z,12.10
2019-03-04T00:23:07.706Z,12.10
2019-03-04T00:28:46.116Z,12.10
2019-03-04T00:31:27.871Z,12.10
2019-03-04T00:34:10.172Z,12.10
2019-03-04T00:36:51.924Z,12.00
2019-03-04T00:39:34.437Z,12.00
2019-03-04T00:42:16.967Z,11.90
2019-03-04T00:44:58.864Z,11.90
2019-03-04T00:47:40.881Z,11.90
2019-03-04T00:50:23.214Z,11.90
2019-03-04T00:53:04.963Z,11.80
2019-03-04T00:55:46.470Z,11.80
2019-03-04T00:58:28.497Z,11.70
2019-03-04T01:01:11.053Z,11.70
2019-03-04T01:03:52.865Z,11.60
2019-03-04T01:06:34.598Z,11.60
2019-03-04T01:09:16.281Z,11.60
2019-03-04T01:11:58.557Z,11.60
2019-03-04T01:14:40.844Z,11.60
2019-03-04T01:17:22.570Z,11.60
2019-03-04T01:20:04.352Z,11.60
2019-03-04T01:22:46.679Z,11.60
2019-03-04T01:25:28.913Z,11.60
2019-03-04T01:28:10.289Z,11.60
2019-03-04T01:30:51.905Z,11.60
2019-03-04T01:33:34.229Z,11.60
2019-03-04T01:36:15.726Z,11.60
2019-03-04T01:38:58.072Z,11.60
2019-03-04T01:41:40.894Z,11.60
2019-03-04T01:44:23.330Z,11.60
2019-03-04T01:47:05.659Z,11.60
2019-03-04T01:49:47.613Z,11.50
2019-03-04T01:52:29.738Z,11.70
2019-03-04T01:55:11.342Z,11.70
2019-03-04T01:57:53.245Z,11.70
2019-03-04T02:00:35.181Z,11.70
2019-03-04T02:03:16.648Z,11.70
2019-03-04T02:05:58.962Z,11.70
2019-03-04T02:08:41.349Z,11.70
2019-03-04T02:11:11.625Z,11.80
2019-03-04T02:14:00.709Z,11.80
2019-03-04T02:17:00.392Z,11.90
2019-03-04T02:19:49.536Z,11.90
2019-03-04T02:22:31.449Z,11.90
2019-03-04T02:25:12.966Z,12.00
2019-03-04T02:27:55.153Z,12.20
2019-03-04T02:30:36.560Z,12.30
2019-03-04T02:33:18.645Z,12.50
2019-03-04T02:35:58.901Z,12.50
2019-03-04T02:38:41.258Z,12.60
2019-03-04T02:41:23.765Z,12.50
2019-03-04T02:44:05.720Z,12.50
2019-03-04T02:46:48.008Z,12.50
2019-03-04T02:49:28.230Z,12.40
2019-03-04T02:52:09.574Z,12.40
2019-03-04T02:54:51.533Z,12.40
2019-03-04T02:57:33.065Z,12.40
2019-03-04T03:00:13.897Z,12.30
2019-03-04T03:02:56.172Z,12.20
2019-03-04T03:05:39.236Z,12.10
2019-03-04T03:08:21.452Z,12.10
2019-03-04T03:11:01.622Z,12.00
2019-03-04T03:13:43.190Z,12.00
2019-03-04T03:16:25.634Z,11.90
2019-03-04T03:19:07.455Z,11.90
2019-03-04T03:21:49.315Z,11.90
2019-03-04T03:24:31.751Z,11.90
2019-03-04T03:27:13.565Z,11.90
2019-03-04T03:29:55.269Z,11.90
2019-03-04T03:32:37.146Z,12.00
2019-03-04T03:35:18.939Z,12.10
2019-03-04T03:38:01.108Z,12.20
2019-03-04T03:40:31.301Z,12.20
2019-03-04T03:43:20.394Z,12.10
2019-03-04T03:46:28.922Z,12.10
2019-03-04T03:49:30.126Z,12.10
2019-03-04T03:52:11.604Z,12.10
2019-03-04T03:54:53.873Z,12.00
2019-03-04T03:57:35.967Z,12.00
2019-03-04T04:00:18.077Z,12.10
2019-03-04T04:03:00.481Z,12.10
2019-03-04T04:05:42.344Z,12.10
2019-03-04T04:08:12.414Z,12.10
2019-03-04T04:11:01.702Z,12.00
2019-03-04T04:13:43.309Z,12.10
2019-03-04T04:16:25.649Z,12.00
2019-03-04T04:19:08.033Z,12.00
2019-03-04T04:21:50.266Z,11.90
2019-03-04T04:24:31.818Z,12.00
2019-03-04T04:27:13.644Z,12.00
2019-03-04T04:29:56.104Z,12.00
2019-03-04T04:32:38.101Z,12.00
2019-03-04T04:35:20.227Z,12.00
2019-03-04T04:38:01.758Z,12.00
2019-03-04T04:40:41.965Z,12.00
2019-03-04T04:43:25.407Z,11.90
2019-03-04T04:46:07.180Z,11.90
2019-03-04T04:48:48.859Z,11.90
2019-03-04T04:51:30.205Z,11.90
2019-03-04T04:54:12.581Z,11.90
2019-03-04T04:57:00.528Z,11.80
2019-03-04T04:59:42.764Z,11.80
2019-03-04T05:02:22.955Z,11.80
2019-03-04T05:05:05.245Z,11.80
2019-03-04T05:07:47.641Z,11.80
2019-03-04T05:10:29.997Z,11.80
2019-03-04T05:13:11.413Z,11.80
2019-03-04T05:15:41.333Z,11.80
2019-03-04T05:18:30.522Z,11.80
2019-03-04T05:21:19.618Z,11.70
2019-03-04T05:23:51.209Z,11.70
2019-03-04T05:26:40.352Z,11.70
2019-03-04T05:29:22.142Z,11.60
2019-03-04T05:32:03.911Z,11.60
2019-03-04T05:34:44.088Z,11.60
2019-03-04T05:37:33.268Z,11.60
2019-03-04T05:40:15.250Z,11.60
2019-03-04T05:42:56.701Z,11.50
2019-03-04T05:45:38.149Z,11.50
2019-03-04T05:48:19.565Z,11.40
2019-03-04T05:51:01.057Z,10.50
2019-03-04T05:53:42.612Z,9.60
2019-03-04T05:56:24.001Z,8.90
2019-03-04T05:59:05.606Z,8.40
2019-03-04T06:01:47.775Z,8.00
2019-03-04T06:04:29.301Z,7.70
2019-03-04T06:07:22.252Z,7.50
2019-03-04T06:10:04.325Z,7.10
2019-03-04T06:12:46.185Z,6.80
2019-03-04T06:15:27.577Z,6.70
2019-03-04T06:17:57.575Z,6.60
2019-03-04T06:23:56.642Z,6.70
2019-03-04T06:26:26.572Z,6.70
2019-03-04T06:28:56.604Z,6.80
2019-03-04T06:31:26.767Z,6.90
2019-03-04T06:33:56.800Z,6.90
2019-03-04T06:36:45.952Z,6.90
2019-03-04T06:39:35.332Z,7.00
2019-03-04T06:42:16.864Z,7.10
2019-03-04T06:44:59.548Z,7.10
2019-03-04T06:47:29.416Z,7.20
2019-03-04T06:49:59.392Z,7.20
2019-03-04T06:52:29.607Z,7.30
2019-03-04T06:55:38.045Z,7.40
2019-03-04T06:58:27.272Z,7.30
2019-03-04T07:01:09.482Z,7.40
2019-03-04T07:03:42.928Z,7.40
2019-03-04T07:06:32.151Z,7.40
2019-03-04T07:09:17.716Z,7.40
2019-03-04T07:11:59.960Z,7.50
2019-03-04T07:14:42.061Z,7.50
2019-03-04T07:17:24.080Z,7.50
2019-03-04T07:20:05.601Z,7.50
2019-03-04T07:22:35.683Z,7.60
2019-03-04T07:25:24.881Z,7.60
2019-03-04T07:27:56.372Z,7.60
2019-03-04T07:30:26.412Z,7.70
2019-03-04T07:40:07.250Z,8.00
2019-03-04T07:42:58.212Z,8.10
2019-03-04T07:45:40.053Z,8.20
2019-03-04T07:48:23.629Z,8.20
2019-03-04T07:51:00.142Z,8.20
2019-03-04T07:53:30.221Z,8.20
2019-03-04T07:56:00.311Z,8.10
2019-03-04T07:58:30.433Z,8.10
2019-03-04T08:01:00.721Z,8.00
2019-03-04T08:03:30.651Z,8.00
2019-03-04T08:06:00.720Z,8.00
2019-03-04T08:08:31.793Z,8.00
2019-03-04T08:11:50.430Z,8.00
2019-03-04T08:14:20.716Z,8.10
2019-03-04T08:16:50.743Z,8.20
2019-03-04T08:19:20.626Z,8.20
2019-03-04T08:21:50.560Z,8.20
2019-03-04T08:24:20.528Z,8.30
2019-03-04T08:26:50.568Z,8.40
2019-03-04T08:29:20.461Z,8.50
2019-03-04T08:31:50.473Z,8.50
2019-03-04T08:34:30.574Z,8.50
2019-03-04T08:36:52.460Z,8.60
2019-03-04T08:39:23.060Z,8.60
2019-03-04T08:41:53.184Z,8.70
2019-03-04T08:44:23.161Z,8.70
2019-03-04T08:46:53.167Z,8.70
2019-03-04T08:49:23.086Z,8.80
2019-03-04T08:51:53.122Z,8.80
2019-03-04T08:54:23.270Z,8.80
2019-03-04T08:57:03.253Z,8.90
2019-03-04T08:59:24.805Z,8.90
2019-03-04T09:01:56.392Z,8.90
2019-03-04T09:04:26.458Z,9.00
2019-03-04T09:06:56.690Z,9.00
2019-03-04T09:09:26.663Z,9.10
2019-03-04T09:11:56.774Z,9.20
2019-03-04T09:14:26.729Z,9.40
2019-03-04T09:16:56.684Z,9.50
2019-03-04T09:19:26.861Z,9.50
2019-03-04T09:21:56.829Z,9.50
2019-03-04T09:24:29.379Z,9.50
2019-03-04T09:26:59.897Z,9.50
2019-03-04T09:29:29.935Z,9.50
2019-03-04T09:31:59.894Z,9.50
2019-03-04T09:34:29.855Z,9.50
2019-03-04T09:36:59.838Z,9.50
2019-03-04T09:39:30.000Z,9.50
2019-03-04T09:42:08.902Z,9.60
2019-03-04T09:44:39.307Z,9.80
2019-03-04T09:47:10.465Z,10.00
2019-03-04T09:49:41.518Z,10.10
2019-03-04T09:52:12.669Z,10.20
2019-03-04T09:54:44.125Z,10.30
2019-03-04T09:57:15.229Z,10.40
2019-03-04T09:59:47.048Z,10.50
2019-03-04T10:02:27.273Z,10.50
2019-03-04T10:05:34.244Z,10.50
2019-03-04T10:08:32.340Z,10.50
2019-03-04T10:11:39.320Z,10.40
2019-03-04T10:14:49.532Z,10.30
2019-03-04T10:17:48.312Z,10.20
2019-03-04T10:21:10.043Z,10.10
2019-03-04T10:24:24.815Z,10.10
2019-03-04T10:27:39.393Z,10.00
2019-03-04T10:30:26.465Z,9.90
2019-03-04T10:33:28.307Z,9.90
2019-03-04T10:36:18.195Z,9.90
2019-03-04T10:39:17.814Z,9.90
2019-03-04T10:42:45.695Z,9.90
2019-03-04T10:45:54.729Z,9.90
2019-03-04T10:48:25.217Z,9.80
2019-03-04T10:50:55.722Z,9.80
2019-03-04T10:53:26.293Z,9.80
2019-03-04T10:55:56.812Z,9.80
2019-03-04T10:58:27.051Z,9.70
2019-03-04T11:00:57.561Z,9.70
2019-03-04T11:03:27.992Z,9.70
2019-03-04T11:05:58.026Z,9.70
2019-03-04T11:08:27.950Z,9.60
2019-03-04T11:10:58.733Z,9.60
2019-03-04T11:13:28.689Z,9.60
2019-03-04T11:15:58.691Z,9.50
2019-03-04T11:18:28.679Z,9.10
2019-03-04T11:20:59.233Z,8.30
2019-03-04T11:23:30.936Z,7.50
2019-03-04T11:26:00.975Z,6.90
2019-03-04T11:28:30.988Z,6.40
2019-03-04T11:31:01.036Z,6.10
2019-03-04T11:33:30.889Z,5.90
2019-03-04T11:36:00.932Z,5.80
2019-03-04T11:38:57.484Z,5.70
2019-03-04T11:41:27.480Z,5.70
2019-03-04T11:43:57.847Z,5.70
2019-03-04T11:46:27.975Z,5.80
2019-03-04T11:48:57.983Z,5.80
2019-03-04T11:51:27.950Z,5.80
2019-03-04T11:53:57.907Z,5.80
2019-03-04T11:56:27.802Z,6.80
2019-03-04T11:58:57.846Z,5.80
2019-03-04T12:01:36.355Z,5.80
2019-03-04T12:04:06.291Z,5.80
2019-03-04T12:06:36.189Z,5.80
2019-03-04T12:09:09.616Z,5.80
2019-03-04T12:11:39.907Z,5.80
2019-03-04T12:14:09.937Z,5.80
2019-03-04T12:16:40.356Z,5.90
2019-03-04T12:19:10.450Z,5.90
2019-03-04T12:21:40.490Z,6.00
2019-03-04T12:24:10.658Z,6.10
2019-03-04T12:26:40.706Z,6.20
2019-03-04T12:29:11.226Z,6.20
2019-03-04T12:31:51.332Z,6.30
2019-03-04T12:34:25.085Z,6.30
2019-03-04T12:36:55.209Z,6.20
2019-03-04T12:39:25.136Z,6.20
2019-03-04T12:41:55.109Z,6.30
2019-03-04T12:44:25.006Z,6.50
2019-03-04T12:46:55.133Z,6.70
2019-03-04T12:49:26.002Z,6.90
2019-03-04T12:51:55.984Z,7.10
2019-03-04T12:54:25.964Z,7.10
2019-03-04T12:56:57.319Z,7.10
2019-03-04T12:59:27.276Z,7.00
2019-03-04T13:01:57.251Z,6.90
2019-03-04T13:04:27.297Z,6.80
2019-03-04T13:06:57.339Z,6.70
2019-03-04T13:09:27.409Z,6.60
2019-03-04T13:11:57.449Z,6.60
2019-03-04T13:14:27.537Z,6.70
2019-03-04T13:16:57.593Z,6.70
2019-03-04T13:19:27.575Z,6.80
2019-03-04T13:21:57.892Z,7.00
2019-03-04T13:24:27.809Z,7.20
2019-03-04T13:26:57.824Z,7.30
2019-03-04T13:29:27.691Z,7.30
2019-03-04T13:31:57.726Z,7.30
2019-03-04T13:34:27.702Z,7.30
2019-03-04T13:36:57.605Z,7.20
2019-03-04T13:39:27.684Z,7.20
2019-03-04T13:41:57.735Z,7.20
2019-03-04T13:44:27.747Z,7.20
2019-03-04T13:46:57.837Z,7.20
2019-03-04T13:49:27.815Z,7.30
2019-03-04T13:51:57.784Z,7.50
2019-03-04T13:54:28.440Z,7.50
2019-03-04T13:56:59.029Z,7.60
2019-03-04T13:59:29.069Z,7.80
2019-03-04T14:01:59.337Z,8.00
2019-03-04T14:04:30.192Z,8.10
2019-03-04T14:07:00.537Z,8.30
2019-03-04T14:09:30.560Z,8.40
2019-03-04T14:12:00.915Z,8.40
2019-03-04T14:14:33.882Z,8.30
2019-03-04T14:17:04.398Z,8.20
2019-03-04T14:19:34.412Z,8.20
2019-03-04T14:22:04.445Z,8.20
2019-03-04T14:24:34.472Z,8.20
2019-03-04T14:27:04.537Z,8.30
2019-03-04T14:29:34.484Z,8.20
2019-03-04T14:32:07.067Z,8.20
2019-03-04T14:34:36.729Z,8.20
2019-03-04T14:37:06.723Z,8.30
2019-03-04T14:39:36.656Z,8.40
2019-03-04T14:42:06.744Z,8.40
2019-03-04T14:44:36.775Z,8.50
2019-03-04T14:47:06.917Z,8.50
2019-03-04T14:49:44.498Z,8.50
2019-03-04T14:52:08.682Z,8.50
2019-03-04T14:54:38.619Z,8.40
2019-03-04T14:57:08.602Z,8.40
2019-03-04T14:59:38.634Z,8.40
2019-03-04T15:02:08.717Z,8.40
2019-03-04T15:04:38.724Z,8.40
2019-03-04T15:07:08.725Z,8.40
2019-03-04T15:09:38.585Z,8.40
2019-03-04T15:12:08.577Z,8.40
2019-03-04T15:14:38.512Z,8.40
2019-03-04T15:17:08.596Z,8.40
2019-03-04T15:19:38.477Z,8.50
2019-03-04T15:22:08.591Z,8.50
2019-03-04T15:24:38.727Z,8.50
2019-03-04T15:27:08.774Z,8.50
2019-03-04T15:29:39.711Z,8.50
2019-03-04T15:32:09.799Z,8.40
2019-03-04T15:34:39.981Z,8.40
2019-03-04T15:37:10.019Z,8.40
2019-03-04T15:39:40.260Z,8.30
2019-03-04T15:42:10.405Z,8.30
2019-03-04T15:44:40.356Z,8.30
2019-03-04T15:47:10.434Z,8.20
2019-03-04T15:49:41.069Z,8.20
2019-03-04T15:52:11.081Z,8.20
2019-03-04T15:54:41.037Z,8.20
2019-03-04T15:57:11.456Z,8.20
2019-03-04T15:59:41.575Z,8.10
2019-03-04T16:02:13.587Z,8.10
2019-03-04T16:04:43.668Z,8.10
2019-03-04T16:07:13.876Z,8.00
2019-03-04T16:09:44.181Z,8.00
2019-03-04T16:12:18.081Z,8.00
2019-03-04T16:14:48.193Z,7.90
2019-03-04T16:17:18.230Z,7.90
2019-03-04T16:19:48.278Z,7.90
2019-03-04T16:22:18.233Z,7.90
2019-03-04T16:24:49.219Z,7.80
2019-03-04T16:27:19.264Z,7.80
2019-03-04T16:29:49.667Z,7.80
2019-03-04T16:32:19.788Z,7.70
2019-03-04T16:34:49.929Z,7.70
2019-03-04T16:37:19.972Z,7.60
2019-03-04T16:39:50.106Z,7.60
2019-03-04T16:42:20.217Z,7.50
2019-03-04T16:44:50.445Z,7.50
2019-03-04T16:47:23.439Z,7.50
2019-03-04T16:49:53.775Z,7.40
2019-03-04T16:52:27.233Z,7.40
2019-03-04T16:54:57.528Z,7.40
2019-03-04T16:57:27.593Z,7.30
2019-03-04T16:59:57.549Z,7.30
2019-03-04T17:02:27.572Z,7.30
2019-03-04T17:04:57.732Z,7.20
2019-03-04T17:07:27.671Z,7.20
2019-03-04T17:09:57.708Z,7.20
2019-03-04T17:12:27.874Z,7.20
2019-03-04T17:15:00.909Z,7.20
2019-03-04T17:17:32.023Z,7.10
2019-03-04T17:20:02.073Z,7.10
2019-03-04T17:22:32.757Z,7.10
2019-03-04T17:25:03.697Z,7.10
2019-03-04T17:27:34.634Z,7.10
2019-03-04T17:30:07.550Z,7.10
2019-03-04T17:32:39.717Z,7.00
2019-03-04T17:35:11.986Z,7.00
2019-03-04T17:37:42.982Z,7.00
2019-03-04T17:40:15.232Z,6.90
2019-03-04T17:42:46.431Z,6.90
2019-03-04T17:45:30.881Z,6.90
2019-03-04T17:48:05.043Z,6.90
2019-03-04T17:50:39.855Z,6.80
2019-03-04T17:53:16.470Z,6.80
2019-03-04T17:55:49.164Z,6.80
2019-03-04T17:58:21.308Z,6.80
2019-03-04T18:01:01.446Z,6.70
2019-03-04T18:03:37.452Z,6.70
2019-03-04T18:06:09.074Z,6.70
2019-03-04T18:08:44.023Z,6.70
2019-03-04T18:11:23.448Z,7.20
2019-03-04T18:13:58.567Z,6.60
2019-03-04T18:16:30.585Z,6.60
2019-03-04T18:19:03.077Z,6.60
2019-03-04T18:21:49.344Z,6.50
2019-03-04T18:24:35.908Z,6.50
2019-03-04T18:27:23.657Z,6.50
2019-03-04T18:30:40.681Z,6.40
2019-03-04T18:33:57.542Z,6.40
2019-03-04T18:37:08.022Z,6.40
2019-03-04T18:40:09.331Z,6.40
2019-03-04T18:43:18.715Z,6.40
2019-03-04T18:46:01.009Z,6.40
2019-03-04T18:48:45.343Z,6.40
2019-03-04T18:51:29.248Z,6.40
2019-03-04T18:54:12.008Z,6.30
2019-03-04T18:56:54.120Z,6.30
2019-03-04T18:59:25.520Z,6.30
2019-03-04T19:01:57.134Z,6.20
2019-03-04T19:04:28.301Z,6.20
2019-03-04T19:06:59.491Z,6.20
2019-03-04T19:09:30.542Z,6.20
2019-03-04T19:12:03.369Z,6.10
2019-03-04T19:14:34.885Z,6.10
2019-03-04T19:17:07.843Z,6.10
2019-03-04T19:19:38.887Z,6.10
2019-03-04T19:22:12.918Z,6.10
2019-03-04T19:24:46.355Z,6.10
2019-03-04T19:27:20.820Z,6.10
2019-03-04T19:29:56.287Z,6.10
2019-03-04T19:32:31.061Z,6.20
2019-03-04T19:35:04.729Z,6.20
2019-03-04T19:37:36.540Z,6.20
2019-03-04T19:40:12.929Z,6.20
2019-03-04T19:42:45.316Z,6.30
2019-03-04T19:45:21.686Z,6.30
2019-03-04T19:47:55.405Z,6.30
2019-03-04T19:50:29.352Z,6.30
2019-03-04T19:53:01.610Z,6.30
2019-03-04T19:55:36.286Z,6.40
2019-03-04T19:58:09.967Z,6.40
2019-03-04T20:00:41.766Z,6.40
2019-03-04T20:03:22.273Z,6.40
2019-03-04T20:05:56.156Z,6.40
2019-03-04T20:08:26.338Z,6.40
2019-03-04T20:10:56.922Z,6.30
2019-03-04T20:13:27.860Z,6.20
2019-03-04T20:15:58.027Z,6.10
2019-03-04T20:18:28.095Z,6.00
2019-03-04T20:20:58.219Z,5.80
2019-03-04T20:23:28.425Z,5.80
2019-03-04T20:25:59.584Z,5.70
2019-03-04T20:28:29.784Z,5.60
2019-03-04T20:31:03.581Z,5.50
2019-03-04T20:33:33.615Z,5.50
2019-03-04T20:36:03.647Z,5.40
2019-03-04T20:38:36.208Z,5.40
2019-03-04T20:41:07.682Z,5.40
2019-03-04T20:43:37.692Z,5.40
2019-03-04T20:46:07.760Z,5.40
2019-03-04T20:48:37.740Z,5.40
2019-03-04T20:51:07.715Z,5.50
2019-03-04T20:53:37.751Z,5.50
2019-03-04T20:56:07.977Z,5.50
2019-03-04T20:58:37.957Z,5.60
2019-03-04T21:01:08.024Z,5.60
2019-03-04T21:03:38.735Z,5.70
2019-03-04T21:06:08.971Z,5.80
2019-03-04T21:08:39.048Z,5.80
2019-03-04T21:11:09.423Z,5.80
2019-03-04T21:13:39.311Z,5.80
2019-03-04T21:16:09.404Z,5.90
2019-03-04T21:18:39.533Z,5.90
2019-03-04T21:21:10.068Z,5.90
2019-03-04T21:23:40.535Z,5.90
2019-03-04T21:26:22.241Z,6.00
2019-03-04T21:29:29.901Z,6.00
2019-03-04T21:32:00.153Z,6.00
2019-03-04T21:35:05.879Z,6.00
2019-03-04T21:37:42.380Z,6.00
2019-03-04T21:40:37.476Z,6.00
2019-03-04T21:43:27.675Z,6.00
2019-03-04T21:46:45.206Z,6.00
2019-03-04T21:49:16.262Z,6.00
2019-03-04T21:52:24.259Z,5.90
2019-03-04T21:54:54.347Z,5.90
2019-03-04T21:57:31.412Z,5.90
2019-03-04T22:00:01.901Z,6.00
2019-03-04T22:02:56.262Z,6.00
2019-03-04T22:05:26.321Z,6.00
2019-03-04T22:07:56.368Z,6.00
2019-03-04T22:10:26.489Z,6.00
2019-03-04T22:12:57.327Z,6.10
2019-03-04T22:15:27.851Z,6.10
2019-03-04T22:17:57.901Z,6.10
2019-03-04T22:20:28.156Z,6.10
2019-03-04T22:22:58.367Z,6.10
2019-03-04T22:25:28.327Z,6.10
2019-03-04T22:27:58.339Z,6.10
2019-03-04T22:30:28.440Z,6.10
2019-03-04T22:32:58.492Z,6.10
2019-03-04T22:35:28.502Z,6.10
2019-03-04T22:37:58.550Z,6.10
2019-03-04T22:40:28.705Z,6.00
2019-03-04T22:42:58.739Z,6.10
2019-03-04T22:45:28.755Z,6.10
2019-03-04T22:47:58.753Z,6.10
2019-03-04T22:50:28.832Z,6.20
2019-03-04T22:52:58.812Z,6.20
2019-03-04T22:55:30.966Z,6.20
2019-03-04T22:58:00.933Z,6.20
2019-03-04T23:01:27.749Z,6.20
2019-03-04T23:04:08.075Z,6.20
2019-03-04T23:06:38.360Z,6.20
2019-03-04T23:09:10.659Z,6.10
2019-03-04T23:11:43.801Z,6.20
2019-03-04T23:14:17.484Z,6.20
2019-03-04T23:16:47.516Z,6.20
2019-03-04T23:19:17.495Z,6.20
2019-03-04T23:21:47.509Z,6.20
2019-03-04T23:24:17.488Z,6.20
2019-03-04T23:26:47.448Z,6.20
2019-03-04T23:29:17.333Z,6.20
2019-03-04T23:32:06.488Z,6.20
2019-03-04T23:35:08.094Z,6.20
2019-03-04T23:37:50.489Z,6.20
2019-03-04T23:40:32.469Z,6.20
2019-03-04T23:43:14.897Z,6.20
2019-03-04T23:45:56.515Z,6.20
2019-03-04T23:48:26.566Z,6.20
2019-03-04T23:51:15.742Z,6.20
2019-03-04T23:54:24.162Z,6.20
2019-03-04T23:57:05.878Z,6.20
2019-03-04T23:59:47.569Z,6.10
